Time;durP1;ratioP1;P1;durP2;ratioP2;P2;SDS_P1;SDS_P2;PMS_P1;PMS_P2;Temp;Humidity;BMP_temperature;BMP_pressure;BME280_temperature;BME280_humidity;BME280_pressure;Samples;Min_cycle;Max_cycle;Signal;HPM_P1;HPM_P2
2020/12/14 00:02:11;;;;;;;22.60;12.70;;;;;;;6.24;85.91;94549.88;5105547;28;20042;-69
2020/12/14 00:04:39;;;;;;;11.70;5.95;;;;;;;6.18;82.84;94554.09;5105416;28;20036;-68
2020/12/14 00:07:06;;;;;;;6.55;2.55;;;;;;;6.02;81.78;94550.22;5107224;28;20035;-69
2020/12/14 00:09:32;;;;;;;3.50;2.40;;;;;;;6.05;82.04;94574.88;5107386;28;22317;-69
2020/12/14 00:11:59;;;;;;;7.88;4.60;;;;;;;5.91;83.40;94580.09;5105354;28;20138;-68
2020/12/14 00:14:26;;;;;;;12.60;6.85;;;;;;;5.72;84.33;94578.41;5107034;28;20420;-68
2020/12/14 00:16:52;;;;;;;4.32;2.90;;;;;;;5.62;83.49;94567.72;5107046;28;20040;-69
2020/12/14 00:19:19;;;;;;;3.45;2.33;;;;;;;5.60;83.26;94580.84;5107075;28;20539;-68
2020/12/14 00:21:46;;;;;;;4.93;3.28;;;;;;;5.28;84.33;94582.56;5106015;28;20059;-69
2020/12/14 00:24:13;;;;;;;5.13;3.55;;;;;;;5.31;84.26;94576.97;5106815;28;20038;-68
2020/12/14 00:26:39;;;;;;;4.85;3.42;;;;;;;5.19;85.14;94574.25;5111312;28;20031;-68
2020/12/14 00:29:05;;;;;;;5.60;3.38;;;;;;;5.00;85.95;94569.94;5110303;28;20641;-68
2020/12/14 00:31:32;;;;;;;6.22;4.07;;;;;;;4.88;87.03;94572.31;5110345;28;20051;-68
2020/12/14 00:33:58;;;;;;;5.05;2.92;;;;;;;4.90;86.42;94583.25;5111216;28;20043;-69
2020/12/14 00:36:24;;;;;;;5.35;3.53;;;;;;;4.79;86.81;94588.03;5109724;28;20044;-68
2020/12/14 00:38:51;;;;;;;6.75;4.40;;;;;;;4.71;87.55;94585.63;5111214;28;20035;-68
2020/12/14 00:41:21;;;;;;;5.65;4.15;;;;;;;4.67;87.39;94579.31;5111104;28;20093;-68
2020/12/14 00:43:48;;;;;;;6.47;4.22;;;;;;;4.78;87.37;94590.81;5111534;28;20118;-68
2020/12/14 00:46:15;;;;;;;5.35;3.30;;;;;;;4.90;86.97;94598.75;5109988;28;20048;-68
2020/12/14 00:48:42;;;;;;;4.80;3.15;;;;;;;4.92;86.43;94601.91;5110746;28;20043;-68
2020/12/14 00:51:10;;;;;;;5.55;3.75;;;;;;;4.99;86.14;94607.84;5110960;28;20118;-68
2020/12/14 00:53:37;;;;;;;5.60;2.67;;;;;;;5.06;86.06;94607.81;5111155;28;20043;-68
2020/12/14 00:56:04;;;;;;;4.10;2.85;;;;;;;5.16;85.74;94611.56;5111256;27;20563;-68
2020/12/14 00:58:31;;;;;;;4.55;2.88;;;;;;;5.27;85.19;94619.69;5111166;28;20052;-68
2020/12/14 01:00:58;;;;;;;5.65;3.45;;;;;;;5.32;85.33;94612.16;5111138;28;20039;-68
2020/12/14 01:03:24;;;;;;;4.05;2.55;;;;;;;5.34;84.54;94610.16;5110225;28;20044;-68
2020/12/14 01:05:52;;;;;;;5.40;3.28;;;;;;;5.31;83.51;94618.28;5108358;28;20035;-68
2020/12/14 01:08:21;;;;;;;5.43;3.22;;;;;;;5.30;83.13;94619.31;5110280;28;20081;-68
2020/12/14 01:10:50;;;;;;;4.15;2.90;;;;;;;5.25;83.85;94626.88;5108701;28;20044;-68
2020/12/14 01:13:17;;;;;;;4.18;2.60;;;;;;;5.20;84.04;94618.94;5108901;28;20061;-69
2020/12/14 01:15:44;;;;;;;3.88;2.47;;;;;;;5.12;83.68;94617.38;5108611;28;20035;-69
2020/12/14 01:18:10;;;;;;;4.60;3.05;;;;;;;5.15;83.64;94628.06;5108925;28;20039;-68
2020/12/14 01:20:40;;;;;;;4.05;2.50;;;;;;;5.19;83.46;94635.44;5110189;28;20501;-69
2020/12/14 01:23:07;;;;;;;4.55;2.90;;;;;;;5.15;83.91;94633.25;5110400;28;20452;-69
2020/12/14 01:25:33;;;;;;;4.10;2.58;;;;;;;5.14;83.96;94626.47;5110164;28;20043;-69
2020/12/14 01:27:59;;;;;;;3.42;2.35;;;;;;;5.10;83.39;94635.63;5109976;28;20044;-69
2020/12/14 01:30:26;;;;;;;3.60;2.22;;;;;;;5.17;83.41;94641.56;5109893;28;20064;-70
2020/12/14 01:32:53;;;;;;;3.40;2.42;;;;;;;5.13;83.03;94634.41;5109678;28;20039;-69
2020/12/14 01:35:20;;;;;;;2.40;1.70;;;;;;;5.07;83.87;94646.34;5109678;28;20035;-68
2020/12/14 01:37:46;;;;;;;3.53;2.03;;;;;;;4.97;84.23;94645.97;5108385;28;20158;-68
2020/12/14 01:40:12;;;;;;;3.65;2.15;;;;;;;4.88;84.65;94636.84;5108552;28;20055;-68
2020/12/14 01:42:40;;;;;;;3.00;2.10;;;;;;;4.75;84.19;94628.13;5107512;28;20047;-68
2020/12/14 01:45:07;;;;;;;3.95;2.60;;;;;;;4.88;84.33;94636.84;5109005;28;20137;-69
2020/12/14 01:47:45;;;;;;;2.95;2.15;;;;;;;4.84;84.41;94636.44;5109432;28;20036;-69
2020/12/14 01:50:12;;;;;;;2.63;1.92;;;;;;;4.73;84.91;94627.50;5109616;28;20109;-68
2020/12/14 01:52:41;;;;;;;4.05;2.30;;;;;;;4.73;85.43;94630.09;5107514;28;20036;-69
2020/12/14 01:55:09;;;;;;;3.45;2.15;;;;;;;4.70;85.94;94635.66;5109398;28;20038;-68
2020/12/14 01:57:38;;;;;;;3.53;2.08;;;;;;;4.63;86.08;94634.88;5109414;28;20079;-69
2020/12/14 02:00:07;;;;;;;4.05;2.60;;;;;;;4.63;86.16;94640.03;5108425;28;20063;-68
2020/12/14 02:02:34;;;;;;;3.58;2.40;;;;;;;4.67;85.69;94640.44;5109510;28;20043;-68
2020/12/14 02:05:01;;;;;;;4.15;2.15;;;;;;;4.57;85.18;94621.00;5107783;28;20035;-69
2020/12/14 02:07:27;;;;;;;6.43;3.63;;;;;;;4.78;85.01;94643.19;5108896;28;20418;-69
2020/12/14 02:09:54;;;;;;;11.27;5.20;;;;;;;4.87;84.35;94645.59;5108757;28;20044;-68
2020/12/14 02:12:25;;;;;;;9.02;5.88;;;;;;;4.72;84.51;94635.47;5108897;28;20043;-69
2020/12/14 02:14:53;;;;;;;8.00;4.40;;;;;;;4.81;84.44;94646.38;5108674;28;20051;-68
2020/12/14 02:17:20;;;;;;;10.40;5.57;;;;;;;4.76;84.47;94640.03;5109087;28;20035;-68
2020/12/14 02:19:48;;;;;;;9.25;5.05;;;;;;;4.72;85.05;94644.00;5107534;28;20046;-69
2020/12/14 02:22:23;;;;;;;7.63;3.85;;;;;;;4.59;84.75;94618.19;5108827;28;20035;-68
2020/12/14 02:24:55;;;;;;;15.18;6.78;;;;;;;4.66;85.34;94633.66;5108261;28;20474;-69
2020/12/14 02:27:23;;;;;;;14.98;7.43;;;;;;;4.58;85.12;94626.94;5108303;28;20065;-68
2020/12/14 02:29:49;;;;;;;19.80;8.90;;;;;;;4.57;85.71;94630.50;5108384;27;20040;-69
2020/12/14 02:32:18;;;;;;;16.58;7.10;;;;;;;4.34;86.14;94600.75;5107036;28;20496;-69
2020/12/14 02:34:45;;;;;;;15.52;6.97;;;;;;;4.52;85.99;94638.03;5108503;28;20039;-68
2020/12/14 02:37:14;;;;;;;11.23;4.78;;;;;;;4.47;85.97;94643.78;5108392;28;20035;-69
2020/12/14 02:39:40;;;;;;;11.20;4.93;;;;;;;4.40;86.08;94633.47;5109006;28;23071;-68
2020/12/14 02:42:15;;;;;;;12.93;5.97;;;;;;;4.40;85.90;94619.78;5107244;28;20040;-68
2020/12/14 02:44:42;;;;;;;19.80;8.02;;;;;;;4.37;86.38;94631.25;5106665;28;20531;-68
2020/12/14 02:47:09;;;;;;;15.27;6.03;;;;;;;4.35;86.43;94617.78;5108140;28;20043;-69
2020/12/14 02:49:36;;;;;;;24.35;8.35;;;;;;;4.49;85.91;94633.28;5108463;28;20039;-69
2020/12/14 02:52:04;;;;;;;37.88;11.02;;;;;;;4.45;85.70;94629.47;5106950;28;20488;-69
2020/12/14 02:54:30;;;;;;;39.25;11.13;;;;;;;4.45;86.19;94626.91;5108243;28;20042;-69
2020/12/14 02:56:56;;;;;;;37.70;11.30;;;;;;;4.27;86.37;94610.25;5108311;28;20055;-69
2020/12/14 02:59:23;;;;;;;20.00;7.00;;;;;;;4.28;86.81;94622.13;5107975;28;20514;-68
2020/12/14 03:01:51;;;;;;;32.35;11.15;;;;;;;4.37;86.54;94631.25;5108118;28;20047;-69
2020/12/14 03:04:19;;;;;;;29.88;10.32;;;;;;;4.44;86.04;94635.66;5106438;28;20516;-69
2020/12/14 03:06:47;;;;;;;41.17;13.73;;;;;;;4.44;86.07;94620.97;5107561;28;20474;-68
2020/12/14 03:09:14;;;;;;;48.20;14.45;;;;;;;4.50;85.40;94615.03;5108036;28;20040;-69
2020/12/14 03:11:41;;;;;;;41.92;12.77;;;;;;;4.34;85.72;94611.06;5105657;28;20039;-69
2020/12/14 03:14:08;;;;;;;17.90;5.55;;;;;;;4.45;85.12;94621.75;5106949;28;20048;-68
2020/12/14 03:16:39;;;;;;;34.17;9.20;;;;;;;4.33;85.64;94609.44;5107644;28;20043;-69
2020/12/14 03:19:06;;;;;;;22.08;6.18;;;;;;;4.36;85.73;94614.22;5106608;28;20447;-69
2020/12/14 03:21:32;;;;;;;29.98;9.15;;;;;;;4.45;85.32;94621.75;5107972;28;20027;-69
2020/12/14 03:23:59;;;;;;;8.55;5.20;;;;;;;4.49;85.21;94628.91;5107805;27;20071;-68
2020/12/14 03:26:26;;;;;;;8.15;3.78;;;;;;;4.51;84.77;94626.91;5106000;28;20039;-69
2020/12/14 03:28:52;;;;;;;6.07;3.63;;;;;;;4.39;84.76;94621.56;5106145;28;20048;-69
2020/12/14 03:31:19;;;;;;;6.30;4.40;;;;;;;4.44;85.00;94630.50;5107541;28;20111;-69
2020/12/14 03:33:46;;;;;;;5.88;4.28;;;;;;;4.47;84.83;94630.91;5104910;28;20052;-68
2020/12/14 03:36:12;;;;;;;4.70;3.28;;;;;;;4.37;84.78;94625.31;5105018;28;20044;-69
2020/12/14 03:38:39;;;;;;;4.60;3.05;;;;;;;4.43;84.79;94624.56;5107267;28;20123;-68
2020/12/14 03:41:06;;;;;;;4.15;2.80;;;;;;;4.52;84.68;94638.03;5107591;27;20039;-68
2020/12/14 03:43:34;;;;;;;3.67;2.95;;;;;;;4.55;84.41;94633.25;5107352;28;20412;-68
2020/12/14 03:46:00;;;;;;;6.95;4.35;;;;;;;4.52;84.73;94628.53;5107400;27;20047;-68
2020/12/14 03:48:26;;;;;;;4.80;3.35;;;;;;;4.38;84.32;94627.72;5106886;28;20035;-68
2020/12/14 03:50:53;;;;;;;4.32;2.72;;;;;;;4.38;85.29;94643.19;5107392;28;20040;-69
2020/12/14 03:53:19;;;;;;;5.53;3.20;;;;;;;4.26;85.61;94631.84;5106562;28;20036;-69
2020/12/14 03:55:50;;;;;;;5.60;3.60;;;;;;;4.30;85.38;94640.00;5107131;28;20031;-69
2020/12/14 03:58:17;;;;;;;4.75;3.17;;;;;;;4.36;85.36;94645.16;5107254;28;20047;-69
2020/12/14 04:00:45;;;;;;;7.05;2.85;;;;;;;4.29;84.88;94644.38;5106252;28;20036;-69
2020/12/14 04:03:12;;;;;;;4.68;2.75;;;;;;;4.37;84.67;94651.91;5106949;28;20150;-69
2020/12/14 04:05:38;;;;;;;3.78;2.25;;;;;;;4.32;84.51;94643.97;5105793;28;20031;-68
2020/12/14 04:08:05;;;;;;;4.20;2.53;;;;;;;4.42;84.17;94671.94;5106176;28;20050;-68
2020/12/14 04:10:34;;;;;;;4.15;2.92;;;;;;;4.41;84.30;94662.59;5106791;28;20036;-69
2020/12/14 04:13:01;;;;;;;3.72;2.92;;;;;;;4.46;84.83;94669.78;5107025;28;20139;-69
2020/12/14 04:15:28;;;;;;;4.82;3.38;;;;;;;4.36;85.15;94676.09;5106802;28;20031;-69
2020/12/14 04:17:55;;;;;;;3.97;2.88;;;;;;;4.45;84.45;94673.31;5105840;28;20047;-69
2020/12/14 04:20:21;;;;;;;5.30;3.13;;;;;;;4.37;85.20;94677.69;5105459;28;20043;-69
2020/12/14 04:22:48;;;;;;;3.90;2.92;;;;;;;4.39;84.97;94669.75;5104623;28;20433;-69
2020/12/14 04:25:16;;;;;;;4.22;2.55;;;;;;;4.43;84.24;94673.53;5104543;28;20046;-68
2020/12/14 04:27:43;;;;;;;4.43;2.85;;;;;;;4.37;83.66;94662.22;5106863;28;20512;-68
2020/12/14 04:30:10;;;;;;;6.47;3.10;;;;;;;4.39;83.57;94665.41;5106737;28;20039;-69
2020/12/14 04:32:36;;;;;;;5.53;2.72;;;;;;;4.49;83.87;94679.69;5106849;28;20412;-68
2020/12/14 04:35:05;;;;;;;4.20;2.97;;;;;;;4.56;83.56;94680.50;5089247;28;20433;-69
2020/12/14 04:37:31;;;;;;;4.05;2.63;;;;;;;4.57;83.50;94680.31;5106460;28;20042;-69
2020/12/14 04:39:58;;;;;;;4.95;2.95;;;;;;;4.55;83.69;94678.91;5106658;28;20039;-69
2020/12/14 04:42:25;;;;;;;4.93;3.30;;;;;;;4.54;84.26;94680.69;5107097;28;20024;-69
2020/12/14 04:44:53;;;;;;;5.40;3.65;;;;;;;4.52;84.10;94668.97;5105586;28;20043;-69
2020/12/14 04:47:21;;;;;;;5.15;2.97;;;;;;;4.62;84.02;94692.59;5105736;28;20036;-69
2020/12/14 04:49:48;;;;;;;3.88;2.92;;;;;;;4.60;84.45;94692.00;5106193;28;20067;-69
2020/12/14 04:52:17;;;;;;;4.80;3.45;;;;;;;4.60;85.07;94697.16;5106684;28;20096;-69
2020/12/14 04:54:51;;;;;;;5.13;3.03;;;;;;;4.59;84.26;94700.72;5106493;28;20047;-69
2020/12/14 04:57:22;;;;;;;5.45;3.40;;;;;;;4.54;83.51;94692.81;5105129;28;20035;-70
2020/12/14 04:59:52;;;;;;;4.55;3.05;;;;;;;4.69;83.21;94706.31;5105556;28;20070;-69
2020/12/14 05:02:18;;;;;;;4.05;3.15;;;;;;;4.51;82.76;94708.66;5106025;28;20028;-69
2020/12/14 05:04:45;;;;;;;4.95;2.83;;;;;;;4.63;83.01;94706.28;5104620;28;20044;-69
2020/12/14 05:07:12;;;;;;;7.18;3.33;;;;;;;4.70;82.65;94723.38;5105921;28;20047;-69
2020/12/14 05:09:40;;;;;;;4.72;2.83;;;;;;;4.59;82.11;94721.38;5105253;28;20036;-69
2020/12/14 05:12:17;;;;;;;5.15;3.70;;;;;;;4.57;82.80;94733.66;5108566;28;20039;-69
2020/12/14 05:14:44;;;;;;;6.88;2.92;;;;;;;4.58;82.79;94724.94;5110493;28;20066;-69
2020/12/14 05:17:23;;;;;;;4.95;2.70;;;;;;;4.60;82.96;94733.28;5107322;28;20048;-69
2020/12/14 05:19:51;;;;;;;6.47;2.92;;;;;;;4.63;81.75;94732.91;5108947;28;20040;-69
2020/12/14 05:22:18;;;;;;;3.75;2.42;;;;;;;4.69;82.00;94742.44;5108640;27;20432;-68
2020/12/14 05:24:51;;;;;;;4.28;2.92;;;;;;;4.71;81.95;94740.44;5109943;28;20404;-69
2020/12/14 05:27:32;;;;;;;3.60;2.42;;;;;;;4.72;81.16;94747.19;5109103;28;20088;-69
2020/12/14 05:29:59;;;;;;;4.13;2.90;;;;;;;4.69;82.09;94742.44;5108975;28;20123;-69
2020/12/14 05:32:26;;;;;;;5.80;3.40;;;;;;;4.57;82.24;94739.63;5109579;28;20043;-69
2020/12/14 05:34:53;;;;;;;10.75;6.05;;;;;;;4.58;82.93;94750.75;5109669;28;20035;-69
2020/12/14 05:37:19;;;;;;;6.35;4.32;;;;;;;4.41;84.11;94750.28;5108483;28;20039;-69
2020/12/14 05:39:46;;;;;;;8.43;5.05;;;;;;;4.37;83.92;94749.88;5112872;28;20513;-74
2020/12/14 05:42:20;;;;;;;7.28;5.20;;;;;;;4.49;84.25;94759.66;5111579;28;20048;-73
2020/12/14 05:44:48;;;;;;;7.65;4.35;;;;;;;4.27;84.49;94754.63;5113191;28;20040;-73
2020/12/14 05:47:29;;;;;;;15.88;8.50;;;;;;;4.31;84.89;94765.34;5110210;28;20039;-73
2020/12/14 05:50:09;;;;;;;12.07;6.22;;;;;;;4.27;84.75;94770.09;5109925;28;20035;-74
2020/12/14 05:52:46;;;;;;;21.33;11.55;;;;;;;4.27;84.79;94775.25;5110764;28;20047;-72
2020/12/14 05:55:17;;;;;;;8.27;4.95;;;;;;;4.30;84.28;94784.38;5111001;28;20500;-74
2020/12/14 05:57:48;;;;;;;13.23;7.97;;;;;;;4.23;84.92;94781.75;5108936;28;20039;-73
2020/12/14 06:00:16;;;;;;;12.60;7.50;;;;;;;4.28;84.56;94787.13;5108509;28;20097;-74
2020/12/14 06:02:42;;;;;;;11.20;6.95;;;;;;;4.27;84.66;94795.88;5110828;28;20036;-73
2020/12/14 06:05:09;;;;;;;8.50;5.55;;;;;;;4.30;84.53;94795.47;5112019;28;20046;-73
2020/12/14 06:07:38;;;;;;;6.53;4.50;;;;;;;4.35;84.76;94800.84;5109937;28;20501;-74
2020/12/14 06:10:15;;;;;;;10.38;6.63;;;;;;;4.26;85.20;94794.28;5110975;28;20044;-73
2020/12/14 06:12:45;;;;;;;7.40;4.57;;;;;;;4.30;85.25;94805.00;5111906;28;20058;-75
2020/12/14 06:15:14;;;;;;;7.25;4.30;;;;;;;4.33;85.19;94815.72;5111955;28;20040;-76
2020/12/14 06:17:41;;;;;;;11.48;7.00;;;;;;;4.10;85.52;94815.22;5110490;28;20035;-72
2020/12/14 06:20:13;;;;;;;9.82;6.30;;;;;;;4.25;85.89;94822.81;5109264;28;20412;-73
2020/12/14 06:23:03;;;;;;;11.50;7.20;;;;;;;4.35;85.87;94824.06;5107830;27;20508;-72
2020/12/14 06:25:31;;;;;;;10.45;4.82;;;;;;;4.40;84.68;94821.72;5109322;28;20130;-73
2020/12/14 06:28:33;;;;;;;5.35;3.78;;;;;;;4.53;84.06;94835.66;5112421;28;20036;-72
2020/12/14 06:31:00;;;;;;;13.95;8.80;;;;;;;4.53;84.23;94835.66;5109748;28;20039;-73
2020/12/14 06:33:38;;;;;;;12.93;7.22;;;;;;;4.66;84.21;94853.75;5107587;28;20031;-73
2020/12/14 06:36:40;;;;;;;9.55;5.82;;;;;;;4.66;84.69;94851.16;5106980;28;20118;-73
2020/12/14 06:39:26;;;;;;;8.07;5.20;;;;;;;4.76;84.69;94856.75;5097680;28;20482;-73
2020/12/14 06:42:07;;;;;;;15.02;6.90;;;;;;;4.78;84.78;94857.38;5108726;28;20122;-74
2020/12/14 06:44:34;;;;;;;20.33;13.95;;;;;;;4.81;85.04;94853.63;5107505;28;20447;-75
2020/12/14 06:47:21;;;;;;;12.93;9.00;;;;;;;4.85;84.86;94854.03;5108521;28;20031;-74
2020/12/14 06:49:48;;;;;;;13.93;8.57;;;;;;;4.84;85.19;94857.59;5108211;28;20044;-74
2020/12/14 06:52:36;;;;;;;11.95;6.43;;;;;;;4.97;84.15;94862.78;5109925;28;20028;-75
2020/12/14 06:55:04;;;;;;;9.15;5.35;;;;;;;4.87;82.66;94859.78;5108800;28;20063;-74
2020/12/14 06:57:37;;;;;;;13.02;8.75;;;;;;;4.98;82.77;94869.53;5108713;27;20043;-74
2020/12/14 07:00:05;;;;;;;9.95;6.60;;;;;;;4.93;83.79;94871.91;5096183;28;20123;-72
2020/12/14 07:02:37;;;;;;;8.40;5.30;;;;;;;4.90;84.33;94861.97;5108627;28;20042;-72
2020/12/14 07:05:04;;;;;;;6.50;4.53;;;;;;;4.97;84.75;94873.91;5105857;28;20089;-72
2020/12/14 07:07:32;;;;;;;6.80;4.65;;;;;;;5.03;85.23;94881.88;5109013;28;20039;-74
2020/12/14 07:10:15;;;;;;;9.02;5.40;;;;;;;5.09;85.70;94891.41;5109218;28;20036;-73
2020/12/14 07:12:44;;;;;;;7.60;4.55;;;;;;;5.05;85.21;94885.84;5107595;28;20044;-73
2020/12/14 07:15:31;;;;;;;10.90;6.28;;;;;;;5.03;85.32;94887.81;5108339;28;20035;-74
2020/12/14 07:18:08;;;;;;;17.70;10.82;;;;;;;4.85;85.13;94885.00;5106802;28;20412;-73
2020/12/14 07:20:44;;;;;;;13.57;8.90;;;;;;;4.86;84.68;94896.88;5108647;28;20070;-73
2020/12/14 07:23:14;;;;;;;9.73;6.38;;;;;;;4.77;84.46;94894.50;5109054;28;20571;-73
2020/12/14 07:25:46;;;;;;;10.80;6.25;;;;;;;4.71;85.77;94900.41;5109767;28;20516;-73
2020/12/14 07:28:14;;;;;;;10.07;6.38;;;;;;;4.64;85.55;94903.94;5108197;28;20040;-72
2020/12/14 07:30:40;;;;;;;8.60;5.93;;;;;;;4.49;86.18;94909.25;5108629;28;20035;-73
2020/12/14 07:33:09;;;;;;;13.68;6.10;;;;;;;4.49;86.31;94914.41;5108703;28;20036;-74
2020/12/14 07:35:38;;;;;;;11.85;6.53;;;;;;;4.50;86.06;94918.56;5108240;28;20040;-71
2020/12/14 07:38:10;;;;;;;27.75;12.52;;;;;;;4.42;85.86;94900.69;5107133;28;20505;-74
2020/12/14 07:40:37;;;;;;;12.75;6.55;;;;;;;4.46;86.67;94917.34;5108801;28;20063;-73
2020/12/14 07:43:04;;;;;;;27.83;13.10;;;;;;;4.52;87.21;94912.25;5107104;28;20088;-73
2020/12/14 07:45:30;;;;;;;17.20;10.88;;;;;;;4.55;86.00;94911.84;5108359;28;20142;-73
2020/12/14 07:47:56;;;;;;;19.40;10.07;;;;;;;4.49;86.84;94916.97;5108541;28;20413;-73
2020/12/14 07:50:25;;;;;;;14.13;6.95;;;;;;;4.46;86.99;94912.19;5107428;28;20035;-74
2020/12/14 07:52:55;;;;;;;16.58;8.73;;;;;;;4.60;87.54;94908.69;5106289;28;20057;-73
2020/12/14 07:55:22;;;;;;;14.10;7.93;;;;;;;4.71;87.70;94926.22;5107697;28;20061;-71
2020/12/14 07:57:50;;;;;;;37.22;17.08;;;;;;;4.75;88.15;94922.28;5107941;28;20484;-74
2020/12/14 08:00:23;;;;;;;25.48;10.55;;;;;;;4.78;87.59;94921.88;5107524;28;20070;-74
2020/12/14 08:02:50;;;;;;;22.98;11.07;;;;;;;4.74;87.59;94915.50;5104344;28;20401;-74
2020/12/14 08:05:20;;;;;;;12.88;6.78;;;;;;;4.85;86.90;94931.44;5104350;28;20039;-73
2020/12/14 08:07:52;;;;;;;20.00;9.73;;;;;;;4.82;86.47;94926.66;5105725;28;20122;-72
2020/12/14 08:10:37;;;;;;;10.48;6.30;;;;;;;4.81;86.16;94925.88;5105420;28;20420;-73
2020/12/14 08:13:10;;;;;;;;;;;;;;;4.78;86.51;94936.56;5106740;28;20039;-72
2020/12/14 08:15:42;;;;;;;18.02;10.02;;;;;;;4.79;86.77;94928.63;5106955;28;19931;-74
2020/12/14 08:18:09;;;;;;;26.40;13.10;;;;;;;4.81;86.19;94940.53;5106627;28;21881;-73
2020/12/14 08:20:40;;;;;;;21.13;12.80;;;;;;;4.74;86.51;94931.00;5107015;28;20035;-73
2020/12/14 08:23:20;;;;;;;25.70;13.02;;;;;;;4.70;87.34;94934.94;5108313;28;20042;-73
2020/12/14 08:25:49;;;;;;;32.67;17.30;;;;;;;4.79;87.45;94938.97;5107254;28;20535;-74
2020/12/14 08:28:27;;;;;;;33.05;15.07;;;;;;;4.70;87.82;94945.28;5108416;28;20035;-73
2020/12/14 08:30:55;;;;;;;37.70;14.95;;;;;;;4.67;87.22;94948.22;5107371;28;20043;-73
2020/12/14 08:33:22;;;;;;;23.27;11.88;;;;;;;4.64;86.88;94948.59;5106513;28;20114;-72
2020/12/14 08:35:54;;;;;;;22.73;11.57;;;;;;;4.54;88.38;94950.75;5106610;28;20057;-73
2020/12/14 08:38:27;;;;;;;38.17;14.30;;;;;;;4.57;87.56;94950.34;5107379;28;20497;-73
2020/12/14 08:40:55;;;;;;;21.05;11.98;;;;;;;4.62;87.30;94950.56;5107692;28;20032;-71
2020/12/14 08:43:24;;;;;;;24.65;13.25;;;;;;;4.62;87.61;94950.56;5108096;28;20031;-72
2020/12/14 08:46:01;;;;;;;31.65;15.52;;;;;;;4.73;88.10;94949.25;5089903;28;20100;-72
2020/12/14 08:48:30;;;;;;;26.27;15.80;;;;;;;4.63;89.13;94957.34;5110228;28;20479;-71
2020/12/14 08:51:33;;;;;;;37.45;21.88;;;;;;;4.69;90.09;94958.34;5110332;28;20074;-72
2020/12/14 08:54:19;;;;;;;41.20;22.60;;;;;;;4.58;89.97;94937.25;5068034;28;20048;-72
2020/12/14 08:56:46;;;;;;;32.70;18.73;;;;;;;4.57;90.71;94950.34;5108687;27;20543;-71
2020/12/14 08:59:15;;;;;;;33.40;17.45;;;;;;;4.49;91.98;94945.34;5111446;28;20046;-72
2020/12/14 09:01:58;;;;;;;32.95;19.42;;;;;;;4.38;92.96;94942.31;5109585;28;20032;-72
2020/12/14 09:04:29;;;;;;;40.83;21.80;;;;;;;4.47;93.32;94944.75;5110622;28;20040;-73
2020/12/14 09:06:56;;;;;;;38.45;20.27;;;;;;;4.52;92.46;94947.53;5107498;28;20043;-73
2020/12/14 09:09:30;;;;;;;35.00;21.20;;;;;;;4.50;92.89;94944.34;5110416;28;20038;-72
2020/12/14 09:11:57;;;;;;;32.60;16.02;;;;;;;4.48;92.26;94938.59;5109892;28;20078;-73
2020/12/14 09:14:29;;;;;;;37.85;22.15;;;;;;;4.49;93.14;94942.78;5110689;28;20063;-72
2020/12/14 09:17:02;;;;;;;21.25;12.02;;;;;;;4.53;92.53;94941.41;5108666;28;20538;-73
2020/12/14 09:19:31;;;;;;;17.33;11.55;;;;;;;4.54;92.85;94938.63;5109118;28;20118;-72
2020/12/14 09:21:58;;;;;;;14.90;8.90;;;;;;;4.44;92.29;94930.44;5107607;28;20052;-73
2020/12/14 09:24:27;;;;;;;19.95;12.63;;;;;;;4.53;92.39;94931.09;5108217;28;20039;-73
2020/12/14 09:27:02;;;;;;;16.52;10.15;;;;;;;4.51;92.60;94940.81;5109101;28;20048;-72
2020/12/14 09:29:29;;;;;;;15.23;8.75;;;;;;;4.50;93.45;94939.19;5108772;28;20143;-73
2020/12/14 09:31:57;;;;;;;10.38;7.20;;;;;;;4.50;92.88;94944.34;5110186;28;20101;-73
2020/12/14 09:34:24;;;;;;;14.98;8.35;;;;;;;4.42;93.24;94941.94;5109885;28;20493;-73
2020/12/14 09:36:55;;;;;;;12.35;7.10;;;;;;;4.45;93.02;94936.38;5109498;28;20666;-74
2020/12/14 09:39:23;;;;;;;13.15;7.18;;;;;;;4.47;93.04;94942.16;5108827;28;20043;-73
2020/12/14 09:41:51;;;;;;;12.57;7.97;;;;;;;4.43;92.96;94934.03;5110395;28;20496;-74
2020/12/14 09:44:18;;;;;;;12.00;8.43;;;;;;;4.37;93.39;94935.56;5108883;28;20124;-74
2020/12/14 09:46:44;;;;;;;12.38;7.70;;;;;;;4.36;93.37;94944.28;5109977;28;20051;-73
2020/12/14 09:49:12;;;;;;;15.32;9.20;;;;;;;4.26;93.37;94923.19;5108741;28;20505;-73
2020/12/14 09:51:38;;;;;;;19.13;11.27;;;;;;;4.38;93.55;94941.53;5110293;28;20039;-74
2020/12/14 09:54:06;;;;;;;25.27;12.70;;;;;;;4.25;94.09;94926.78;5109227;28;20119;-73
2020/12/14 09:56:33;;;;;;;17.63;10.02;;;;;;;4.31;93.92;94915.69;5109691;28;20394;-74
2020/12/14 09:59:00;;;;;;;24.00;13.00;;;;;;;4.30;93.86;94921.81;5108653;28;20044;-73
2020/12/14 10:01:30;;;;;;;23.02;12.15;;;;;;;4.42;94.08;94934.22;5108046;28;20137;-73
2020/12/14 10:03:57;;;;;;;16.65;9.02;;;;;;;4.39;93.56;94941.34;5107981;28;20408;-73
2020/12/14 10:06:24;;;;;;;21.02;11.05;;;;;;;4.48;93.89;94931.66;5107574;28;20114;-73
2020/12/14 10:08:51;;;;;;;27.10;12.45;;;;;;;4.47;94.25;94927.50;5109502;28;20092;-73
2020/12/14 10:11:23;;;;;;;15.48;9.63;;;;;;;4.52;94.53;94932.88;5109052;28;20035;-73
2020/12/14 10:13:50;;;;;;;13.57;8.00;;;;;;;4.47;93.79;94929.28;5108456;28;20032;-73
2020/12/14 10:16:16;;;;;;;21.90;11.77;;;;;;;4.48;93.01;94923.91;5091660;28;20077;-73
2020/12/14 10:18:42;;;;;;;25.80;12.05;;;;;;;4.65;94.02;94937.31;5109519;28;20035;-73
2020/12/14 10:21:09;;;;;;;17.95;11.23;;;;;;;4.61;93.41;94930.94;5109484;28;20045;-74
2020/12/14 10:23:35;;;;;;;13.73;8.48;;;;;;;4.64;92.94;94935.69;5109420;28;20497;-74
2020/12/14 10:26:02;;;;;;;11.25;8.25;;;;;;;4.63;92.10;94928.97;5109433;28;20036;-73
2020/12/14 10:28:28;;;;;;;11.15;8.15;;;;;;;4.67;91.67;94930.16;5109091;28;20038;-72
2020/12/14 10:30:55;;;;;;;11.55;8.43;;;;;;;4.58;92.28;94918.41;5109121;28;21971;-73
2020/12/14 10:33:22;;;;;;;22.52;12.07;;;;;;;4.65;91.68;94932.16;5106207;28;20044;-73
2020/12/14 10:35:49;;;;;;;14.20;8.68;;;;;;;4.62;90.34;94929.94;5108173;28;20115;-73
2020/12/14 10:38:16;;;;;;;10.73;7.00;;;;;;;4.64;88.76;94938.28;5109130;28;20040;-74
2020/12/14 10:40:43;;;;;;;20.10;8.98;;;;;;;4.64;90.44;94940.84;5107960;28;20052;-73
2020/12/14 10:43:09;;;;;;;29.40;15.00;;;;;;;4.55;89.88;94926.53;5108352;28;20496;-74
2020/12/14 10:45:36;;;;;;;14.82;7.32;;;;;;;4.47;89.65;94924.13;5109155;28;20043;-74
2020/12/14 10:48:03;;;;;;;17.05;10.40;;;;;;;4.48;91.05;94936.81;5089964;28;20059;-73
2020/12/14 10:50:29;;;;;;;25.80;13.10;;;;;;;4.53;91.13;94934.44;5108703;28;20151;-74
2020/12/14 10:52:56;;;;;;;20.63;13.60;;;;;;;4.48;92.33;94936.00;5107759;28;20093;-74
2020/12/14 10:55:23;;;;;;;13.82;8.27;;;;;;;4.49;92.39;94935.81;5107524;28;20523;-73
2020/12/14 10:57:50;;;;;;;13.35;9.82;;;;;;;4.44;92.62;94934.81;5105305;28;20531;-73
2020/12/14 11:00:20;;;;;;;21.58;12.15;;;;;;;4.49;92.94;94929.88;5107514;28;20054;-73
2020/12/14 11:02:46;;;;;;;15.15;8.88;;;;;;;4.45;92.90;94926.88;5105950;28;20048;-73
2020/12/14 11:05:13;;;;;;;16.75;10.27;;;;;;;4.42;93.30;94941.94;5107378;28;20043;-74
2020/12/14 11:07:40;;;;;;;13.43;8.40;;;;;;;4.32;92.87;94940.50;5104908;28;20576;-73
2020/12/14 11:10:09;;;;;;;11.00;6.60;;;;;;;4.17;92.35;94930.28;5106486;28;20434;-73
2020/12/14 11:12:36;;;;;;;18.38;9.95;;;;;;;4.26;93.52;94943.81;5106258;28;20043;-73
2020/12/14 11:15:07;;;;;;;23.63;12.90;;;;;;;4.31;93.71;94930.38;5106785;28;20042;-72
2020/12/14 11:17:35;;;;;;;10.13;5.93;;;;;;;4.11;93.03;94930.25;5107783;28;20043;-74
2020/12/14 11:20:08;;;;;;;20.55;11.45;;;;;;;4.30;93.28;94939.88;5106535;28;20052;-73
2020/12/14 11:22:36;;;;;;;14.88;8.82;;;;;;;4.27;93.67;94949.75;5107738;28;20039;-73
2020/12/14 11:25:06;;;;;;;9.93;6.35;;;;;;;4.27;92.94;94945.41;5108378;27;20039;-73
2020/12/14 11:27:33;;;;;;;15.65;9.65;;;;;;;4.22;93.61;94940.03;5107118;28;20050;-73
2020/12/14 11:30:00;;;;;;;16.50;11.65;;;;;;;4.31;93.30;94949.22;5108001;28;20389;-73
2020/12/14 11:32:28;;;;;;;14.32;9.15;;;;;;;4.41;92.91;94941.13;5107276;28;20497;-73
2020/12/14 11:34:55;;;;;;;11.40;6.70;;;;;;;4.37;91.82;94937.34;5107580;28;22085;-73
2020/12/14 11:37:21;;;;;;;17.50;10.52;;;;;;;4.32;91.90;94943.09;5105920;28;20553;-74
2020/12/14 11:39:47;;;;;;;14.40;9.25;;;;;;;4.28;92.65;94949.56;5105292;28;20051;-73
2020/12/14 11:42:15;;;;;;;9.50;6.85;;;;;;;4.33;91.46;94928.41;5106029;28;20043;-73
2020/12/14 11:44:42;;;;;;;15.63;7.93;;;;;;;4.47;91.84;94944.75;5107285;28;20054;-72
2020/12/14 11:47:09;;;;;;;29.05;16.98;;;;;;;4.37;89.70;94930.38;5107704;28;20040;-72